createdAt,value
2022-09-23T00:01:03.791Z,81.47
2022-09-23T00:03:31.961Z,81.16
2022-09-23T00:06:07.114Z,81.23
2022-09-23T00:08:33.850Z,81.90
2022-09-23T00:11:14.903Z,82.32
2022-09-23T00:13:43.164Z,82.18
2022-09-23T00:16:16.833Z,81.80
2022-09-23T00:18:43.648Z,83.40
2022-09-23T00:21:13.306Z,83.10
2022-09-23T00:23:41.658Z,83.43
2022-09-23T00:26:10.954Z,84.19
2022-09-23T00:28:38.351Z,84.09
2022-09-23T00:31:10.829Z,84.42
2022-09-23T00:33:38.017Z,85.22
2022-09-23T00:36:07.623Z,84.80
2022-09-23T00:38:34.430Z,84.75
2022-09-23T00:41:02.676Z,84.36
2022-09-23T00:44:00.102Z,85.10
2022-09-23T00:46:34.400Z,84.35
2022-09-23T00:49:13.869Z,83.85
2022-09-23T00:51:47.471Z,83.38
2022-09-23T00:54:14.356Z,82.97
2022-09-23T00:56:40.992Z,82.99
2022-09-23T00:59:09.732Z,83.80
2022-09-23T01:04:07.806Z,83.33
2022-09-23T01:06:34.418Z,82.73
2022-09-23T01:09:01.055Z,82.99
2022-09-23T01:11:55.236Z,82.63
2022-09-23T01:14:36.661Z,82.51
2022-09-23T01:17:05.937Z,83.34
2022-09-23T01:20:03.572Z,84.35
2022-09-23T01:22:35.997Z,85.21
2022-09-23T01:25:31.614Z,85.07
2022-09-23T01:28:16.992Z,85.14
2022-09-23T01:31:15.113Z,84.50
2022-09-23T01:34:08.023Z,84.47
2022-09-23T01:36:51.784Z,84.50
2022-09-23T01:39:21.081Z,83.84
2022-09-23T01:42:17.606Z,84.12
2022-09-23T01:44:56.860Z,84.18
2022-09-23T01:47:35.502Z,83.98
2022-09-23T01:50:32.995Z,84.72
2022-09-23T01:53:06.720Z,84.58
2022-09-23T01:55:38.369Z,85.19
2022-09-23T01:58:15.688Z,85.34
2022-09-23T02:00:51.196Z,85.70
2022-09-23T02:03:26.865Z,85.90
2022-09-23T02:06:02.556Z,85.96
2022-09-23T02:08:40.659Z,85.28
2022-09-23T02:11:10.592Z,86.23
2022-09-23T02:13:45.911Z,85.89
2022-09-23T02:16:33.912Z,86.11
2022-09-23T02:19:20.744Z,84.66
2022-09-23T02:21:52.471Z,84.37
2022-09-23T02:24:25.923Z,84.46
2022-09-23T02:26:58.186Z,84.67
2022-09-23T02:29:27.317Z,85.97
2022-09-23T02:32:13.293Z,86.13
2022-09-23T02:34:55.961Z,85.54
2022-09-23T02:37:54.255Z,85.84
2022-09-23T02:40:40.780Z,85.88
2022-09-23T02:43:19.744Z,85.50
2022-09-23T02:45:47.380Z,85.35
2022-09-23T02:48:22.960Z,85.81
2022-09-23T02:50:50.372Z,86.86
2022-09-23T02:53:17.242Z,86.89
2022-09-23T02:55:44.340Z,87.67
2022-09-23T02:58:14.008Z,87.97
2022-09-23T03:00:59.931Z,87.86
2022-09-23T03:03:49.499Z,88.38
2022-09-23T03:06:33.371Z,88.06
2022-09-23T03:09:14.004Z,88.57
2022-09-23T03:11:47.005Z,88.40
2022-09-23T03:14:28.925Z,88.46
2022-09-23T03:17:13.024Z,88.09
2022-09-23T03:19:45.475Z,88.50
2022-09-23T03:22:18.430Z,88.35
2022-09-23T03:24:50.694Z,88.84
2022-09-23T03:27:25.636Z,89.18
2022-09-23T03:29:54.053Z,88.69
2022-09-23T03:32:24.767Z,88.98
2022-09-23T03:34:53.886Z,88.92
2022-09-23T03:37:26.639Z,89.49
2022-09-23T03:40:01.676Z,89.27
2022-09-23T03:42:31.339Z,89.41
2022-09-23T03:44:58.605Z,89.07
2022-09-23T03:47:27.643Z,89.85
2022-09-23T03:49:55.001Z,89.72
2022-09-23T03:52:24.780Z,90.08
2022-09-23T03:54:52.241Z,89.62
2022-09-23T03:57:22.023Z,89.77
2022-09-23T03:59:50.581Z,90.10
2022-09-23T04:02:18.726Z,89.77
2022-09-23T04:04:45.424Z,89.98
2022-09-23T04:07:13.032Z,90.32
2022-09-23T04:09:39.788Z,90.49
2022-09-23T04:12:07.109Z,91.86
2022-09-23T04:14:33.919Z,91.17
2022-09-23T04:17:00.499Z,91.69
2022-09-23T04:19:27.127Z,91.41
2022-09-23T04:21:53.900Z,91.76
2022-09-23T04:24:20.816Z,91.72
2022-09-23T04:26:51.953Z,91.34
2022-09-23T04:29:19.056Z,91.65
2022-09-23T04:31:45.759Z,91.23
2022-09-23T04:34:12.778Z,91.29
2022-09-23T04:36:39.630Z,91.93
2022-09-23T04:39:06.466Z,91.30
2022-09-23T04:41:33.516Z,91.15
2022-09-23T04:44:00.270Z,91.43
2022-09-23T04:46:28.113Z,90.93
2022-09-23T04:48:55.052Z,91.26
2022-09-23T04:51:26.524Z,91.87
2022-09-23T04:53:54.104Z,91.70
2022-09-23T04:56:26.338Z,91.09
2022-09-23T04:58:53.520Z,91.42
2022-09-23T05:01:26.853Z,91.75
2022-09-23T05:03:56.291Z,92.41
2022-09-23T05:06:23.532Z,92.13
2022-09-23T05:08:55.037Z,92.40
2022-09-23T05:11:22.602Z,92.18
2022-09-23T05:13:51.117Z,92.39
2022-09-23T05:16:18.759Z,92.68
2022-09-23T05:18:46.328Z,92.34
2022-09-23T05:21:15.028Z,91.70
2022-09-23T05:23:42.602Z,92.05
2022-09-23T05:26:13.608Z,91.71
2022-09-23T05:28:40.617Z,91.57
2022-09-23T05:31:19.920Z,91.18
2022-09-23T05:33:51.992Z,91.48
2022-09-23T05:36:20.624Z,90.42
2022-09-23T05:38:49.331Z,89.93
2022-09-23T05:41:16.443Z,88.78
2022-09-23T05:43:43.291Z,89.35
2022-09-23T05:46:17.861Z,88.71
2022-09-23T05:48:48.177Z,88.79
2022-09-23T05:51:17.674Z,88.73
2022-09-23T05:53:48.094Z,87.66
2022-09-23T05:56:16.767Z,88.30
2022-09-23T05:58:43.978Z,87.39
2022-09-23T06:01:17.885Z,87.21
2022-09-23T06:03:52.254Z,86.33
2022-09-23T06:06:22.984Z,86.96
2022-09-23T06:08:49.553Z,86.00
2022-09-23T06:11:16.588Z,86.61
2022-09-23T06:13:43.401Z,85.15
2022-09-23T06:16:13.774Z,85.17
2022-09-23T06:18:45.229Z,85.33
2022-09-23T06:21:14.520Z,85.39
2022-09-23T06:23:42.263Z,84.79
2022-09-23T06:26:10.773Z,84.78
2022-09-23T06:28:39.285Z,84.25
2022-09-23T06:31:15.273Z,84.67
2022-09-23T06:33:43.330Z,85.21
2022-09-23T06:36:10.470Z,83.48
2022-09-23T06:38:41.424Z,81.12
2022-09-23T06:41:08.076Z,78.92
2022-09-23T06:43:34.714Z,79.67
2022-09-23T06:46:04.003Z,79.80
2022-09-23T06:48:35.155Z,79.36
2022-09-23T06:51:04.950Z,79.31
2022-09-23T06:53:32.255Z,79.05
2022-09-23T06:56:07.004Z,79.41
2022-09-23T06:58:35.843Z,79.04
2022-09-23T07:01:08.200Z,77.35
2022-09-23T07:03:35.790Z,75.85
2022-09-23T07:06:03.242Z,74.69
2022-09-23T07:08:31.076Z,73.71
2022-09-23T07:10:59.421Z,70.80
2022-09-23T07:13:27.190Z,69.84
2022-09-23T07:16:01.981Z,66.19
2022-09-23T07:18:36.724Z,58.10
2022-09-23T07:21:07.805Z,57.32
2022-09-23T07:23:34.501Z,52.26
2022-09-23T07:26:01.484Z,49.36
2022-09-23T07:28:29.134Z,49.16
2022-09-23T07:31:00.284Z,49.14
2022-09-23T07:33:33.055Z,48.00
2022-09-23T07:36:05.480Z,46.18
2022-09-23T07:38:32.111Z,45.60
2022-09-23T07:41:06.420Z,44.72
2022-09-23T07:43:33.172Z,46.35
2022-09-23T07:46:08.777Z,49.65
2022-09-23T07:48:36.423Z,49.58
2022-09-23T07:51:10.345Z,50.49
2022-09-23T07:53:37.711Z,50.88
2022-09-23T07:56:06.306Z,52.27
2022-09-23T07:58:34.497Z,51.41
2022-09-23T08:01:03.417Z,52.69
2022-09-23T08:03:30.027Z,51.89
2022-09-23T08:06:12.675Z,53.70
2022-09-23T08:08:43.368Z,55.55
2022-09-23T08:11:12.128Z,55.19
2022-09-23T08:13:38.809Z,54.37
2022-09-23T08:16:06.474Z,53.69
2022-09-23T08:18:34.045Z,54.63
2022-09-23T08:21:00.937Z,54.67
2022-09-23T08:23:27.842Z,55.31
2022-09-23T08:25:59.961Z,52.49
2022-09-23T08:28:27.891Z,50.84
2022-09-23T08:30:55.410Z,50.72
2022-09-23T08:33:23.821Z,49.96
2022-09-23T08:35:51.512Z,50.09
2022-09-23T08:38:18.855Z,51.53
2022-09-23T08:40:48.992Z,49.05
2022-09-23T08:43:45.441Z,48.17
2022-09-23T08:46:18.776Z,48.21
2022-09-23T08:48:49.135Z,46.72
2022-09-23T08:51:29.304Z,46.29
2022-09-23T08:53:56.065Z,46.42
2022-09-23T08:56:24.067Z,46.21
2022-09-23T08:59:07.511Z,46.24
2022-09-23T09:01:49.431Z,44.23
2022-09-23T09:04:25.769Z,46.95
2022-09-23T09:07:03.414Z,42.63
2022-09-23T09:09:55.220Z,43.05
2022-09-23T09:12:43.450Z,43.13
2022-09-23T09:15:25.016Z,42.33
2022-09-23T09:18:12.833Z,38.80
2022-09-23T09:20:57.744Z,36.90
2022-09-23T09:23:48.073Z,41.28
2022-09-23T09:26:21.665Z,40.68
2022-09-23T09:28:59.094Z,42.13
2022-09-23T09:31:47.679Z,43.48
2022-09-23T09:34:33.920Z,42.43
2022-09-23T09:37:06.985Z,42.25
2022-09-23T09:39:35.344Z,43.79
2022-09-23T09:42:03.540Z,41.76
2022-09-23T09:44:58.632Z,41.10
2022-09-23T09:47:40.506Z,42.14
2022-09-23T09:50:08.884Z,44.71
2022-09-23T09:52:43.040Z,43.32
2022-09-23T09:55:12.426Z,42.65
2022-09-23T09:58:01.589Z,43.42
2022-09-23T10:00:28.281Z,42.12
2022-09-23T10:03:02.862Z,38.96
2022-09-23T10:05:46.775Z,40.37
2022-09-23T10:08:22.559Z,38.45
2022-09-23T10:10:58.963Z,38.93
2022-09-23T10:13:27.258Z,38.56
2022-09-23T10:15:54.941Z,38.74
2022-09-23T10:18:48.929Z,40.66
2022-09-23T10:21:23.107Z,40.06
2022-09-23T10:23:58.030Z,42.95
2022-09-23T10:26:33.776Z,36.76
2022-09-23T10:29:20.728Z,38.10
2022-09-23T10:31:47.324Z,36.54
2022-09-23T10:34:27.368Z,37.14
2022-09-23T10:37:01.660Z,39.38
2022-09-23T10:39:47.628Z,37.19
2022-09-23T10:43:05.070Z,35.88
2022-09-23T10:45:55.282Z,35.26
2022-09-23T10:48:32.017Z,37.58
2022-09-23T10:50:59.690Z,37.37
2022-09-23T10:53:53.431Z,35.15
2022-09-23T10:56:35.978Z,33.13
2022-09-23T10:59:18.622Z,30.34
2022-09-23T11:01:51.081Z,33.20
2022-09-23T11:04:38.065Z,34.03
2022-09-23T11:07:21.874Z,35.03
2022-09-23T11:10:35.421Z,33.44
2022-09-23T11:13:33.042Z,33.63
2022-09-23T11:16:17.694Z,30.47
2022-09-23T11:19:03.207Z,30.41
2022-09-23T11:21:44.165Z,34.09
2022-09-23T11:24:35.078Z,32.52
2022-09-23T11:27:19.397Z,35.44
2022-09-23T11:29:57.950Z,34.69
2022-09-23T11:32:56.540Z,35.36
2022-09-23T11:35:27.734Z,34.86
2022-09-23T11:38:16.108Z,40.38
2022-09-23T11:40:47.057Z,40.42
2022-09-23T11:43:23.354Z,41.30
2022-09-23T11:45:59.035Z,39.71
2022-09-23T11:48:34.552Z,39.73
2022-09-23T11:51:14.919Z,41.12
2022-09-23T11:53:50.878Z,42.42
2022-09-23T11:56:34.996Z,41.79
2022-09-23T11:59:13.441Z,43.20
2022-09-23T12:01:45.803Z,42.20
2022-09-23T12:04:24.645Z,40.15
2022-09-23T12:07:01.094Z,39.43
2022-09-23T12:09:58.809Z,38.92
2022-09-23T12:12:38.533Z,38.37
2022-09-23T12:15:16.975Z,38.43
2022-09-23T12:17:43.529Z,36.79
2022-09-23T12:20:37.880Z,37.65
2022-09-23T12:23:10.836Z,38.19
2022-09-23T12:26:02.096Z,37.30
2022-09-23T12:28:45.127Z,37.33
2022-09-23T12:31:15.567Z,36.02
2022-09-23T12:33:53.577Z,38.46
2022-09-23T12:36:35.371Z,38.23
2022-09-23T12:39:15.263Z,37.72
2022-09-23T12:41:47.828Z,38.79
2022-09-23T12:44:41.233Z,38.46
2022-09-23T12:47:21.056Z,38.47
2022-09-23T12:49:48.446Z,39.26
2022-09-23T12:52:18.123Z,37.04
2022-09-23T12:54:50.139Z,37.14
2022-09-23T12:57:34.843Z,37.18
2022-09-23T13:00:12.593Z,37.63
2022-09-23T13:03:18.604Z,37.70
2022-09-23T13:06:11.542Z,38.25
2022-09-23T13:08:40.404Z,39.27
2022-09-23T13:11:19.485Z,37.39
2022-09-23T13:13:49.837Z,37.63
2022-09-23T13:16:39.357Z,38.90
2022-09-23T13:19:26.939Z,38.58
2022-09-23T13:21:53.484Z,38.06
2022-09-23T13:24:47.580Z,37.00
2022-09-23T13:27:21.952Z,37.63
2022-09-23T13:30:13.874Z,39.93
2022-09-23T13:32:48.487Z,37.87
2022-09-23T13:35:23.218Z,38.60
2022-09-23T13:37:50.447Z,39.16
2022-09-23T13:40:21.570Z,37.76
2022-09-23T13:42:56.883Z,38.09
2022-09-23T13:45:25.259Z,37.85
2022-09-23T13:47:54.624Z,38.07
2022-09-23T13:50:24.760Z,38.14
2022-09-23T13:52:57.210Z,37.45
2022-09-23T13:55:26.392Z,38.43
2022-09-23T13:58:17.277Z,38.04
2022-09-23T14:00:44.472Z,38.69
2022-09-23T14:03:36.284Z,37.01
2022-09-23T14:06:12.932Z,38.63
2022-09-23T14:08:44.050Z,37.25
2022-09-23T14:11:18.711Z,37.63
2022-09-23T14:13:48.795Z,38.09
2022-09-23T14:16:16.579Z,38.71
2022-09-23T14:18:45.667Z,38.61
2022-09-23T14:21:38.702Z,38.46
2022-09-23T14:24:12.178Z,38.72
2022-09-23T14:26:40.145Z,39.01
2022-09-23T14:29:17.038Z,38.94
2022-09-23T14:32:00.677Z,39.05
2022-09-23T14:34:51.161Z,39.08
2022-09-23T14:37:57.945Z,39.54
2022-09-23T14:40:28.932Z,42.44
2022-09-23T14:43:07.454Z,39.41
2022-09-23T14:45:37.293Z,38.46
2022-09-23T14:48:10.221Z,38.41
2022-09-23T14:50:39.509Z,38.38
2022-09-23T14:53:33.001Z,38.34
2022-09-23T14:56:08.500Z,38.11
2022-09-23T14:58:53.055Z,38.72
2022-09-23T15:01:32.576Z,38.18
2022-09-23T15:04:30.876Z,41.15
2022-09-23T15:07:16.873Z,39.31
2022-09-23T15:09:45.111Z,38.67
2022-09-23T15:12:14.690Z,39.27
2022-09-23T15:14:50.723Z,39.95
2022-09-23T15:17:23.425Z,39.85
2022-09-23T15:19:57.121Z,38.36
2022-09-23T15:22:25.158Z,39.19
2022-09-23T15:24:54.065Z,38.91
2022-09-23T15:27:34.547Z,39.58
2022-09-23T15:30:14.712Z,39.35
2022-09-23T15:32:45.700Z,39.83
2022-09-23T15:35:18.989Z,40.49
2022-09-23T15:37:47.267Z,40.34
2022-09-23T15:40:18.898Z,40.08
2022-09-23T15:42:51.148Z,39.90
2022-09-23T15:45:42.900Z,41.26
2022-09-23T15:48:23.014Z,43.11
2022-09-23T15:50:51.039Z,42.18
2022-09-23T15:53:21.781Z,42.00
2022-09-23T15:55:52.590Z,41.86
2022-09-23T15:58:20.496Z,42.02
2022-09-23T16:00:55.969Z,42.55
2022-09-23T16:03:30.220Z,44.28
2022-09-23T16:06:00.589Z,44.41
2022-09-23T16:08:28.590Z,45.60
2022-09-23T16:10:55.535Z,45.02
2022-09-23T16:13:22.251Z,45.01
2022-09-23T16:15:48.976Z,45.30
2022-09-23T16:18:15.681Z,47.78
2022-09-23T16:20:45.000Z,49.64
2022-09-23T16:23:34.118Z,50.79
2022-09-23T16:26:29.597Z,50.31
2022-09-23T16:28:58.035Z,51.29
2022-09-23T16:31:25.851Z,52.09
2022-09-23T16:33:53.517Z,54.03
2022-09-23T16:36:31.053Z,53.24
2022-09-23T16:38:59.898Z,53.53
2022-09-23T16:41:29.299Z,53.76
2022-09-23T16:43:56.299Z,54.31
2022-09-23T16:46:27.049Z,54.74
2022-09-23T16:48:57.315Z,55.72
2022-09-23T16:51:27.301Z,55.82
2022-09-23T16:53:55.948Z,56.85
2022-09-23T16:56:28.420Z,58.07
2022-09-23T16:58:56.238Z,58.63
2022-09-23T17:01:45.054Z,59.22
2022-09-23T17:04:13.043Z,59.76
2022-09-23T17:06:49.029Z,59.65
2022-09-23T17:09:18.022Z,59.76
2022-09-23T17:11:47.733Z,59.51
2022-09-23T17:14:17.461Z,59.15
2022-09-23T17:16:44.194Z,59.25
2022-09-23T17:19:12.249Z,59.16
2022-09-23T17:21:39.274Z,58.51
2022-09-23T17:24:08.856Z,58.63
2022-09-23T17:26:35.511Z,58.64
2022-09-23T17:29:02.168Z,59.87
2022-09-23T17:31:29.093Z,59.13
2022-09-23T17:33:55.892Z,59.20
2022-09-23T17:36:22.564Z,58.99
2022-09-23T17:39:02.267Z,58.64
2022-09-23T17:41:29.697Z,60.21
2022-09-23T17:43:58.466Z,60.76
2022-09-23T17:46:25.083Z,61.11
2022-09-23T17:48:55.447Z,60.83
2022-09-23T17:51:22.733Z,61.87
2022-09-23T17:53:49.952Z,62.17
2022-09-23T17:56:26.625Z,61.92
2022-09-23T17:58:54.160Z,61.87
2022-09-23T18:01:23.321Z,61.59
2022-09-23T18:03:58.019Z,62.20
2022-09-23T18:06:27.276Z,62.17
2022-09-23T18:08:55.878Z,62.55
2022-09-23T18:11:23.600Z,62.60
2022-09-23T18:13:53.220Z,63.01
2022-09-23T18:16:21.597Z,62.70
2022-09-23T18:18:52.621Z,62.58
2022-09-23T18:21:20.129Z,62.48
2022-09-23T18:23:47.453Z,63.02
2022-09-23T18:26:19.763Z,62.97
2022-09-23T18:28:47.926Z,63.32
2022-09-23T18:31:15.749Z,64.19
2022-09-23T18:33:42.537Z,63.53
2022-09-23T18:36:09.872Z,63.96
2022-09-23T18:38:36.570Z,63.76
2022-09-23T18:41:03.364Z,64.84
2022-09-23T18:43:37.523Z,64.68
2022-09-23T18:46:12.250Z,64.58
2022-09-23T18:48:57.757Z,64.90
2022-09-23T18:51:26.034Z,65.33
2022-09-23T18:53:57.537Z,67.80
2022-09-23T18:56:29.776Z,68.90
2022-09-23T18:58:56.549Z,69.93
2022-09-23T19:01:23.864Z,70.38
2022-09-23T19:03:56.122Z,70.30
2022-09-23T19:06:23.202Z,69.66
2022-09-23T19:08:52.060Z,70.23
2022-09-23T19:11:19.907Z,70.54
2022-09-23T19:13:46.754Z,70.62
2022-09-23T19:16:15.539Z,70.61
2022-09-23T19:18:46.329Z,71.39
2022-09-23T19:21:14.948Z,70.74
2022-09-23T19:23:47.574Z,70.43
2022-09-23T19:26:17.124Z,70.66
2022-09-23T19:28:49.094Z,70.57
2022-09-23T19:31:22.931Z,70.33
2022-09-23T19:33:58.432Z,72.11
2022-09-23T19:36:33.779Z,71.97
2022-09-23T19:39:03.990Z,72.14
2022-09-23T19:41:32.203Z,71.73
2022-09-23T19:44:03.172Z,72.16
2022-09-23T19:46:33.681Z,71.56
2022-09-23T19:49:01.102Z,71.25
2022-09-23T19:51:28.225Z,72.14
2022-09-23T19:53:54.941Z,71.84
2022-09-23T19:56:21.806Z,71.76
2022-09-23T19:58:54.148Z,71.93
2022-09-23T20:01:22.140Z,71.64
2022-09-23T20:03:49.597Z,72.16
2022-09-23T20:06:17.741Z,72.01
2022-09-23T20:08:44.901Z,72.07
2022-09-23T20:11:27.623Z,72.92
2022-09-23T20:14:01.659Z,72.55
2022-09-23T20:16:32.362Z,72.56
2022-09-23T20:19:00.876Z,73.79
2022-09-23T20:21:29.211Z,74.41
2022-09-23T20:23:57.032Z,74.35
2022-09-23T20:26:42.956Z,75.22
2022-09-23T20:29:10.696Z,74.52
2022-09-23T20:31:37.928Z,74.66
2022-09-23T20:34:06.921Z,75.13
2022-09-23T20:36:35.004Z,75.19
2022-09-23T20:39:05.734Z,75.61
2022-09-23T20:41:36.589Z,74.97
2022-09-23T20:44:05.864Z,76.06
2022-09-23T20:46:32.628Z,76.31
2022-09-23T20:48:59.639Z,77.09
2022-09-23T20:51:26.362Z,78.08
2022-09-23T20:53:53.162Z,78.70
2022-09-23T20:56:21.436Z,78.86
2022-09-23T20:58:50.365Z,79.21
2022-09-23T21:01:17.893Z,78.50
2022-09-23T21:03:46.971Z,78.27
2022-09-23T21:06:15.432Z,78.20
2022-09-23T21:08:43.478Z,77.88
2022-09-23T21:11:15.828Z,78.30
2022-09-23T21:13:50.478Z,78.09
2022-09-23T21:16:19.782Z,78.21
2022-09-23T21:18:47.999Z,78.53
2022-09-23T21:21:15.186Z,78.50
2022-09-23T21:23:43.478Z,79.19
2022-09-23T21:26:28.114Z,80.31
2022-09-23T21:28:58.727Z,80.35
2022-09-23T21:31:27.959Z,79.90
2022-09-23T21:33:56.803Z,79.42
2022-09-23T21:36:24.584Z,79.50
2022-09-23T21:38:51.658Z,80.68
2022-09-23T21:41:19.373Z,80.77
2022-09-23T21:43:46.056Z,80.81
2022-09-23T21:46:14.748Z,80.38
2022-09-23T21:48:42.619Z,80.51
2022-09-23T21:51:13.273Z,80.08
2022-09-23T21:53:40.891Z,80.18
2022-09-23T21:56:09.838Z,80.15
2022-09-23T21:58:37.804Z,79.50
2022-09-23T22:01:16.087Z,79.29
2022-09-23T22:03:44.290Z,79.44
2022-09-23T22:06:13.647Z,80.09
2022-09-23T22:08:42.968Z,79.85
2022-09-23T22:11:31.677Z,79.99
2022-09-23T22:14:00.482Z,80.13
2022-09-23T22:16:31.298Z,80.51
2022-09-23T22:19:00.582Z,80.84
2022-09-23T22:21:29.654Z,81.32
2022-09-23T22:23:58.359Z,81.44
2022-09-23T22:26:25.325Z,81.57
2022-09-23T22:29:10.428Z,81.84
2022-09-23T22:31:55.570Z,82.11
2022-09-23T22:34:48.555Z,82.56
2022-09-23T22:37:15.695Z,82.76
2022-09-23T22:39:42.276Z,83.08
2022-09-23T22:42:08.864Z,83.61
2022-09-23T22:44:35.645Z,83.81
2022-09-23T22:47:02.304Z,83.89
2022-09-23T22:49:32.026Z,84.04
2022-09-23T22:51:59.363Z,83.65
2022-09-23T22:54:33.405Z,83.03
2022-09-23T22:57:03.165Z,82.66
2022-09-23T22:59:30.074Z,83.13
2022-09-23T23:01:59.731Z,83.67
2022-09-23T23:04:26.997Z,84.17
2022-09-23T23:06:53.615Z,83.86
2022-09-23T23:09:20.223Z,83.80
2022-09-23T23:11:47.304Z,83.55
2022-09-23T23:14:17.161Z,83.47
2022-09-23T23:16:46.137Z,83.25
2022-09-23T23:19:16.471Z,84.12
2022-09-23T23:21:43.622Z,84.67
2022-09-23T23:24:15.313Z,84.56
2022-09-23T23:26:42.555Z,84.45
2022-09-23T23:29:11.026Z,84.29
2022-09-23T23:31:38.344Z,83.79
2022-09-23T23:34:05.919Z,83.83
2022-09-23T23:36:32.577Z,83.62
2022-09-23T23:38:59.211Z,83.44
2022-09-23T23:41:25.944Z,83.98
2022-09-23T23:43:58.376Z,84.59
2022-09-23T23:46:27.502Z,86.39
2022-09-23T23:48:55.484Z,85.88
2022-09-23T23:51:23.093Z,85.56
2022-09-23T23:53:49.737Z,85.20
2022-09-23T23:56:19.358Z,85.11
2022-09-23T23:58:46.214Z,84.80
